sensor_id;sensor_type;location;lat;lon;timestamp;pressure;altitude;pressure_sealevel;temperature;humidity
11343;BME280;5726;42.160;24.746;2022-10-16T00:00:42;100266.69;;;14.56;88.88
11343;BME280;5726;42.160;24.746;2022-10-16T00:03:08;100275.31;;;14.58;88.46
11343;BME280;5726;42.160;24.746;2022-10-16T00:05:39;100270.38;;;14.46;89.38
11343;BME280;5726;42.160;24.746;2022-10-16T00:08:05;100272.97;;;14.51;89.21
11343;BME280;5726;42.160;24.746;2022-10-16T00:10:31;100277.78;;;14.54;89.03
11343;BME280;5726;42.160;24.746;2022-10-16T00:12:56;100276.53;;;14.65;88.39
11343;BME280;5726;42.160;24.746;2022-10-16T00:15:22;100278.94;;;14.67;87.78
11343;BME280;5726;42.160;24.746;2022-10-16T00:17:47;100279.91;;;14.71;86.99
11343;BME280;5726;42.160;24.746;2022-10-16T00:20:13;100289.03;;;14.43;88.64
11343;BME280;5726;42.160;24.746;2022-10-16T00:22:38;100284.25;;;14.40;88.86
11343;BME280;5726;42.160;24.746;2022-10-16T00:25:04;100280.91;;;14.30;88.80
11343;BME280;5726;42.160;24.746;2022-10-16T00:27:29;100285.19;;;14.31;89.35
11343;BME280;5726;42.160;24.746;2022-10-16T00:29:55;100283.81;;;14.33;89.59
11343;BME280;5726;42.160;24.746;2022-10-16T00:32:20;100272.56;;;14.26;89.27
11343;BME280;5726;42.160;24.746;2022-10-16T00:34:46;100281.03;;;14.38;88.99
11343;BME280;5726;42.160;24.746;2022-10-16T00:37:12;100280.16;;;14.24;89.42
11343;BME280;5726;42.160;24.746;2022-10-16T00:39:38;100282.38;;;14.22;89.86
11343;BME280;5726;42.160;24.746;2022-10-16T00:42:04;100283.06;;;14.28;89.88
11343;BME280;5726;42.160;24.746;2022-10-16T00:44:52;100287.13;;;14.12;90.72
11343;BME280;5726;42.160;24.746;2022-10-16T00:49:46;100299.28;;;14.09;90.81
11343;BME280;5726;42.160;24.746;2022-10-16T00:52:14;100293.59;;;14.11;90.94
11343;BME280;5726;42.160;24.746;2022-10-16T00:54:40;100303.59;;;14.10;90.97
11343;BME280;5726;42.160;24.746;2022-10-16T00:57:06;100301.50;;;14.02;91.04
11343;BME280;5726;42.160;24.746;2022-10-16T00:59:35;100296.09;;;14.07;91.33
11343;BME280;5726;42.160;24.746;2022-10-16T01:02:02;100306.28;;;14.10;91.02
11343;BME280;5726;42.160;24.746;2022-10-16T01:04:33;100326.38;;;14.36;89.05
11343;BME280;5726;42.160;24.746;2022-10-16T01:07:14;100315.25;;;14.24;89.56
11343;BME280;5726;42.160;24.746;2022-10-16T01:12:45;100333.47;;;13.90;90.51
11343;BME280;5726;42.160;24.746;2022-10-16T01:15:30;100345.97;;;13.63;92.20
11343;BME280;5726;42.160;24.746;2022-10-16T01:20:35;100335.59;;;13.52;92.84
11343;BME280;5726;42.160;24.746;2022-10-16T01:28:29;100336.41;;;13.52;93.66
11343;BME280;5726;42.160;24.746;2022-10-16T01:30:58;100336.53;;;13.42;94.02
11343;BME280;5726;42.160;24.746;2022-10-16T01:33:35;100347.75;;;13.49;93.75
11343;BME280;5726;42.160;24.746;2022-10-16T01:36:15;100343.09;;;13.55;93.37
11343;BME280;5726;42.160;24.746;2022-10-16T01:38:43;100339.25;;;13.61;92.87
11343;BME280;5726;42.160;24.746;2022-10-16T01:41:15;100345.09;;;13.68;92.76
11343;BME280;5726;42.160;24.746;2022-10-16T01:43:49;100350.66;;;13.76;92.25
11343;BME280;5726;42.160;24.746;2022-10-16T01:46:19;100350.00;;;13.66;92.04
11343;BME280;5726;42.160;24.746;2022-10-16T01:48:46;100345.00;;;13.78;91.26
11343;BME280;5726;42.160;24.746;2022-10-16T01:51:15;100345.41;;;13.84;91.14
11343;BME280;5726;42.160;24.746;2022-10-16T01:53:43;100355.03;;;13.90;90.64
11343;BME280;5726;42.160;24.746;2022-10-16T01:56:12;100358.31;;;13.87;90.20
11343;BME280;5726;42.160;24.746;2022-10-16T01:58:45;100356.88;;;13.95;90.11
11343;BME280;5726;42.160;24.746;2022-10-16T02:01:13;100356.19;;;13.84;90.30
11343;BME280;5726;42.160;24.746;2022-10-16T02:03:42;100358.03;;;13.89;89.85
11343;BME280;5726;42.160;24.746;2022-10-16T02:06:08;100348.78;;;13.95;89.56
11343;BME280;5726;42.160;24.746;2022-10-16T02:08:34;100356.19;;;13.84;89.50
11343;BME280;5726;42.160;24.746;2022-10-16T02:11:00;100357.34;;;13.79;89.90
11343;BME280;5726;42.160;24.746;2022-10-16T02:13:39;100350.72;;;13.71;90.67
11343;BME280;5726;42.160;24.746;2022-10-16T02:16:09;100366.56;;;13.78;90.45
11343;BME280;5726;42.160;24.746;2022-10-16T02:18:35;100353.00;;;13.83;90.33
11343;BME280;5726;42.160;24.746;2022-10-16T02:26:29;100365.72;;;13.77;91.03
11343;BME280;5726;42.160;24.746;2022-10-16T02:29:00;100356.63;;;13.73;90.86
11343;BME280;5726;42.160;24.746;2022-10-16T02:31:33;100361.75;;;13.75;91.04
11343;BME280;5726;42.160;24.746;2022-10-16T02:34:02;100362.16;;;13.82;90.74
11343;BME280;5726;42.160;24.746;2022-10-16T02:36:30;100365.44;;;13.79;90.77
11343;BME280;5726;42.160;24.746;2022-10-16T02:38:57;100372.53;;;13.75;90.83
11343;BME280;5726;42.160;24.746;2022-10-16T02:41:26;100376.19;;;13.84;90.42
11343;BME280;5726;42.160;24.746;2022-10-16T02:43:51;100373.25;;;13.80;90.41
11343;BME280;5726;42.160;24.746;2022-10-16T02:46:17;100373.78;;;13.82;90.14
11343;BME280;5726;42.160;24.746;2022-10-16T02:48:43;100374.34;;;13.79;89.93
11343;BME280;5726;42.160;24.746;2022-10-16T02:51:08;100385.25;;;13.92;88.42
11343;BME280;5726;42.160;24.746;2022-10-16T02:53:34;100374.81;;;13.63;90.29
11343;BME280;5726;42.160;24.746;2022-10-16T02:55:59;100387.06;;;13.50;91.23
11343;BME280;5726;42.160;24.746;2022-10-16T02:58:25;100390.03;;;13.49;91.25
11343;BME280;5726;42.160;24.746;2022-10-16T03:00:50;100398.66;;;13.51;91.19
11343;BME280;5726;42.160;24.746;2022-10-16T03:03:15;100395.66;;;13.76;89.72
11343;BME280;5726;42.160;24.746;2022-10-16T03:05:43;100388.91;;;13.55;90.61
11343;BME280;5726;42.160;24.746;2022-10-16T03:08:11;100394.41;;;13.45;91.31
11343;BME280;5726;42.160;24.746;2022-10-16T03:10:36;100398.66;;;13.51;91.12
11343;BME280;5726;42.160;24.746;2022-10-16T03:13:02;100395.84;;;13.38;92.12
11343;BME280;5726;42.160;24.746;2022-10-16T03:15:27;100400.25;;;13.52;91.65
11343;BME280;5726;42.160;24.746;2022-10-16T03:17:54;100404.84;;;13.51;91.58
11343;BME280;5726;42.160;24.746;2022-10-16T03:20:20;100403.47;;;13.54;91.23
11343;BME280;5726;42.160;24.746;2022-10-16T03:22:45;100404.09;;;13.69;90.46
11343;BME280;5726;42.160;24.746;2022-10-16T03:25:11;100401.75;;;13.63;90.64
11343;BME280;5726;42.160;24.746;2022-10-16T03:27:36;100413.78;;;13.47;91.41
11343;BME280;5726;42.160;24.746;2022-10-16T03:30:02;100417.00;;;13.49;91.24
11343;BME280;5726;42.160;24.746;2022-10-16T03:32:27;100416.41;;;13.52;91.58
11343;BME280;5726;42.160;24.746;2022-10-16T03:34:53;100418.81;;;13.53;91.12
11343;BME280;5726;42.160;24.746;2022-10-16T03:37:19;100419.66;;;13.54;91.14
11343;BME280;5726;42.160;24.746;2022-10-16T03:39:45;100413.16;;;13.55;90.94
11343;BME280;5726;42.160;24.746;2022-10-16T03:42:11;100422.78;;;13.61;90.58
11343;BME280;5726;42.160;24.746;2022-10-16T03:44:37;100420.53;;;13.44;90.96
11343;BME280;5726;42.160;24.746;2022-10-16T03:47:03;100424.66;;;13.37;91.17
11343;BME280;5726;42.160;24.746;2022-10-16T03:49:28;100416.00;;;13.40;91.01
11343;BME280;5726;42.160;24.746;2022-10-16T03:51:54;100421.53;;;13.25;91.13
11343;BME280;5726;42.160;24.746;2022-10-16T03:54:20;100428.25;;;13.28;91.71
11343;BME280;5726;42.160;24.746;2022-10-16T03:56:47;100425.78;;;13.31;91.88
11343;BME280;5726;42.160;24.746;2022-10-16T03:59:12;100436.19;;;13.14;92.59
11343;BME280;5726;42.160;24.746;2022-10-16T04:01:38;100431.19;;;13.31;92.66
11343;BME280;5726;42.160;24.746;2022-10-16T04:04:03;100431.22;;;13.54;90.12
11343;BME280;5726;42.160;24.746;2022-10-16T04:06:29;100430.25;;;12.84;94.78
11343;BME280;5726;42.160;24.746;2022-10-16T04:08:54;100421.88;;;12.81;94.44
11343;BME280;5726;42.160;24.746;2022-10-16T04:11:20;100434.75;;;12.93;94.30
11343;BME280;5726;42.160;24.746;2022-10-16T04:13:45;100425.03;;;12.97;93.00
11343;BME280;5726;42.160;24.746;2022-10-16T04:16:10;100426.97;;;12.49;96.29
11343;BME280;5726;42.160;24.746;2022-10-16T04:18:36;100423.06;;;12.27;98.77
11343;BME280;5726;42.160;24.746;2022-10-16T04:21:03;100418.75;;;12.31;98.41
11343;BME280;5726;42.160;24.746;2022-10-16T04:23:29;100423.00;;;12.37;98.19
11343;BME280;5726;42.160;24.746;2022-10-16T04:25:55;100426.53;;;12.32;97.88
11343;BME280;5726;42.160;24.746;2022-10-16T04:28:20;100423.53;;;12.39;97.38
11343;BME280;5726;42.160;24.746;2022-10-16T04:30:46;100430.75;;;12.43;97.00
11343;BME280;5726;42.160;24.746;2022-10-16T04:33:11;100430.75;;;12.43;96.97
11343;BME280;5726;42.160;24.746;2022-10-16T04:35:38;100435.53;;;12.51;96.44
11343;BME280;5726;42.160;24.746;2022-10-16T04:38:03;100436.84;;;12.58;95.51
11343;BME280;5726;42.160;24.746;2022-10-16T04:40:29;100435.00;;;12.54;95.96
11343;BME280;5726;42.160;24.746;2022-10-16T04:42:58;100430.66;;;13.01;92.81
11343;BME280;5726;42.160;24.746;2022-10-16T04:45:23;100427.88;;;12.73;94.05
11343;BME280;5726;42.160;24.746;2022-10-16T04:47:49;100437.53;;;12.79;94.51
11343;BME280;5726;42.160;24.746;2022-10-16T04:50:14;100438.59;;;13.16;90.52
11343;BME280;5726;42.160;24.746;2022-10-16T04:52:40;100438.22;;;12.99;91.39
11343;BME280;5726;42.160;24.746;2022-10-16T04:55:06;100443.84;;;12.59;93.32
11343;BME280;5726;42.160;24.746;2022-10-16T04:57:31;100439.25;;;12.60;94.14
11343;BME280;5726;42.160;24.746;2022-10-16T04:59:58;100450.00;;;12.65;93.88
11343;BME280;5726;42.160;24.746;2022-10-16T05:02:24;100451.16;;;12.49;94.19
11343;BME280;5726;42.160;24.746;2022-10-16T05:04:50;100454.38;;;12.56;94.29
11343;BME280;5726;42.160;24.746;2022-10-16T05:07:16;100451.88;;;12.64;93.82
11343;BME280;5726;42.160;24.746;2022-10-16T05:09:41;100450.41;;;12.82;92.49
11343;BME280;5726;42.160;24.746;2022-10-16T05:12:07;100448.41;;;13.02;90.26
11343;BME280;5726;42.160;24.746;2022-10-16T05:14:32;100454.47;;;12.79;92.17
11343;BME280;5726;42.160;24.746;2022-10-16T05:16:59;100464.31;;;12.98;91.73
11343;BME280;5726;42.160;24.746;2022-10-16T05:19:24;100470.94;;;13.44;90.14
11343;BME280;5726;42.160;24.746;2022-10-16T05:21:50;100467.47;;;13.67;88.84
11343;BME280;5726;42.160;24.746;2022-10-16T05:24:15;100482.16;;;14.02;87.26
11343;BME280;5726;42.160;24.746;2022-10-16T05:26:41;100475.44;;;14.46;85.19
11343;BME280;5726;42.160;24.746;2022-10-16T05:29:06;100474.38;;;14.66;82.99
11343;BME280;5726;42.160;24.746;2022-10-16T05:31:32;100479.75;;;14.84;81.49
11343;BME280;5726;42.160;24.746;2022-10-16T05:33:59;100477.34;;;14.82;82.00
11343;BME280;5726;42.160;24.746;2022-10-16T05:36:25;100488.28;;;15.09;80.32
11343;BME280;5726;42.160;24.746;2022-10-16T05:38:51;100491.59;;;15.38;79.12
11343;BME280;5726;42.160;24.746;2022-10-16T05:41:16;100494.91;;;15.67;77.51
11343;BME280;5726;42.160;24.746;2022-10-16T05:43:47;100500.06;;;15.95;76.34
11343;BME280;5726;42.160;24.746;2022-10-16T05:46:13;100500.66;;;16.05;74.75
11343;BME280;5726;42.160;24.746;2022-10-16T05:48:38;100512.75;;;15.94;75.46
11343;BME280;5726;42.160;24.746;2022-10-16T05:51:06;100512.13;;;15.71;77.02
11343;BME280;5726;42.160;24.746;2022-10-16T05:53:34;100511.25;;;16.02;75.48
11343;BME280;5726;42.160;24.746;2022-10-16T05:56:00;100519.78;;;16.09;75.13
11343;BME280;5726;42.160;24.746;2022-10-16T05:58:29;100521.41;;;15.96;77.24
11343;BME280;5726;42.160;24.746;2022-10-16T06:00:56;100515.53;;;15.76;78.04
11343;BME280;5726;42.160;24.746;2022-10-16T06:03:22;100519.97;;;16.12;77.09
11343;BME280;5726;42.160;24.746;2022-10-16T06:05:48;100527.47;;;16.47;74.49
11343;BME280;5726;42.160;24.746;2022-10-16T06:08:13;100520.25;;;16.42;74.57
11343;BME280;5726;42.160;24.746;2022-10-16T06:10:39;100531.88;;;16.29;75.73
11343;BME280;5726;42.160;24.746;2022-10-16T06:13:04;100533.66;;;16.47;75.51
11343;BME280;5726;42.160;24.746;2022-10-16T06:15:29;100534.06;;;16.68;74.68
11343;BME280;5726;42.160;24.746;2022-10-16T06:17:55;100532.16;;;17.03;73.08
11343;BME280;5726;42.160;24.746;2022-10-16T06:20:20;100530.22;;;17.61;70.91
11343;BME280;5726;42.160;24.746;2022-10-16T06:22:46;100538.25;;;17.44;71.24
11343;BME280;5726;42.160;24.746;2022-10-16T06:25:11;100535.69;;;17.39;72.26
11343;BME280;5726;42.160;24.746;2022-10-16T06:27:39;100541.75;;;17.66;71.71
11343;BME280;5726;42.160;24.746;2022-10-16T06:30:06;100538.94;;;17.49;71.52
11343;BME280;5726;42.160;24.746;2022-10-16T06:32:31;100542.94;;;17.52;71.81
11343;BME280;5726;42.160;24.746;2022-10-16T06:34:57;100543.78;;;17.04;73.77
11343;BME280;5726;42.160;24.746;2022-10-16T06:37:22;100544.97;;;17.24;73.18
11343;BME280;5726;42.160;24.746;2022-10-16T06:39:48;100550.19;;;17.21;73.36
11343;BME280;5726;42.160;24.746;2022-10-16T06:42:13;100550.41;;;17.11;73.88
11343;BME280;5726;42.160;24.746;2022-10-16T06:44:38;100554.03;;;17.07;74.19
11343;BME280;5726;42.160;24.746;2022-10-16T06:47:04;100547.56;;;16.81;74.91
11343;BME280;5726;42.160;24.746;2022-10-16T06:49:29;100559.41;;;16.58;76.52
11343;BME280;5726;42.160;24.746;2022-10-16T06:51:55;100559.22;;;16.55;77.11
11343;BME280;5726;42.160;24.746;2022-10-16T06:54:20;100559.84;;;16.38;78.34
11343;BME280;5726;42.160;24.746;2022-10-16T06:56:45;100562.72;;;16.42;78.10
11343;BME280;5726;42.160;24.746;2022-10-16T06:59:11;100570.25;;;15.86;80.39
11343;BME280;5726;42.160;24.746;2022-10-16T07:01:36;100572.03;;;15.77;81.62
11343;BME280;5726;42.160;24.746;2022-10-16T07:04:02;100573.56;;;15.83;80.83
11343;BME280;5726;42.160;24.746;2022-10-16T07:06:31;100568.47;;;15.95;80.85
11343;BME280;5726;42.160;24.746;2022-10-16T07:08:57;100569.81;;;16.11;80.07
11343;BME280;5726;42.160;24.746;2022-10-16T07:11:23;100576.25;;;16.42;82.82
11343;BME280;5726;42.160;24.746;2022-10-16T07:13:50;100571.88;;;16.46;82.89
11343;BME280;5726;42.160;24.746;2022-10-16T07:16:18;100576.72;;;16.17;83.10
11343;BME280;5726;42.160;24.746;2022-10-16T07:18:44;100572.25;;;15.81;83.93
11343;BME280;5726;42.160;24.746;2022-10-16T07:21:19;100581.09;;;16.00;81.35
11343;BME280;5726;42.160;24.746;2022-10-16T07:23:51;100584.44;;;15.65;82.44
11343;BME280;5726;42.160;24.746;2022-10-16T07:26:17;100581.56;;;15.25;84.57
11343;BME280;5726;42.160;24.746;2022-10-16T07:28:43;100574.16;;;15.49;84.13
11343;BME280;5726;42.160;24.746;2022-10-16T07:31:11;100573.97;;;15.59;84.15
11343;BME280;5726;42.160;24.746;2022-10-16T07:33:39;100569.97;;;15.38;87.45
11343;BME280;5726;42.160;24.746;2022-10-16T07:36:05;100571.78;;;15.61;87.21
11343;BME280;5726;42.160;24.746;2022-10-16T07:38:31;100569.34;;;15.77;83.67
11343;BME280;5726;42.160;24.746;2022-10-16T07:41:01;100569.00;;;15.66;84.81
11343;BME280;5726;42.160;24.746;2022-10-16T07:43:28;100564.91;;;15.50;85.17
11343;BME280;5726;42.160;24.746;2022-10-16T07:45:54;100567.97;;;15.30;87.34
11343;BME280;5726;42.160;24.746;2022-10-16T07:48:21;100572.47;;;15.16;88.39
11343;BME280;5726;42.160;24.746;2022-10-16T07:50:47;100566.88;;;15.31;87.95
11343;BME280;5726;42.160;24.746;2022-10-16T07:53:12;100574.31;;;15.71;84.98
11343;BME280;5726;42.160;24.746;2022-10-16T07:55:38;100573.66;;;15.78;85.23
11343;BME280;5726;42.160;24.746;2022-10-16T07:58:04;100575.50;;;15.96;84.16
11343;BME280;5726;42.160;24.746;2022-10-16T08:00:30;100576.19;;;16.33;82.88
11343;BME280;5726;42.160;24.746;2022-10-16T08:02:56;100581.00;;;16.63;81.17
11343;BME280;5726;42.160;24.746;2022-10-16T08:05:28;100584.09;;;17.19;79.08
11343;BME280;5726;42.160;24.746;2022-10-16T08:07:54;100585.44;;;17.43;76.99
11343;BME280;5726;42.160;24.746;2022-10-16T08:10:21;100567.16;;;17.48;77.23
11343;BME280;5726;42.160;24.746;2022-10-16T08:12:47;100569.69;;;17.67;75.87
11343;BME280;5726;42.160;24.746;2022-10-16T08:15:13;100572.91;;;17.47;76.75
11343;BME280;5726;42.160;24.746;2022-10-16T08:17:38;100574.38;;;17.74;76.53
11343;BME280;5726;42.160;24.746;2022-10-16T08:20:04;100572.22;;;17.85;75.62
11343;BME280;5726;42.160;24.746;2022-10-16T08:22:30;100580.59;;;18.27;74.45
11343;BME280;5726;42.160;24.746;2022-10-16T08:24:56;100573.34;;;18.53;73.60
11343;BME280;5726;42.160;24.746;2022-10-16T08:27:21;100568.84;;;18.95;71.05
11343;BME280;5726;42.160;24.746;2022-10-16T08:29:48;100576.34;;;18.81;72.52
11343;BME280;5726;42.160;24.746;2022-10-16T08:32:13;100567.88;;;19.00;71.21
11343;BME280;5726;42.160;24.746;2022-10-16T08:34:39;100572.09;;;19.31;70.43
11343;BME280;5726;42.160;24.746;2022-10-16T08:37:04;100567.28;;;19.45;69.35
11343;BME280;5726;42.160;24.746;2022-10-16T08:39:30;100572.88;;;19.57;69.78
11343;BME280;5726;42.160;24.746;2022-10-16T08:50:44;100562.09;;;20.11;66.36
11343;BME280;5726;42.160;24.746;2022-10-16T08:53:17;100557.78;;;20.47;66.27
11343;BME280;5726;42.160;24.746;2022-10-16T08:55:51;100557.78;;;20.47;65.44
11343;BME280;5726;42.160;24.746;2022-10-16T08:58:22;100557.59;;;20.52;64.65
11343;BME280;5726;42.160;24.746;2022-10-16T09:00:57;100562.84;;;20.57;65.67
11343;BME280;5726;42.160;24.746;2022-10-16T09:09:09;100558.53;;;20.56;64.15
11343;BME280;5726;42.160;24.746;2022-10-16T09:14:22;100555.28;;;20.91;63.62
11343;BME280;5726;42.160;24.746;2022-10-16T09:17:54;100555.44;;;20.94;65.31
11343;BME280;5726;42.160;24.746;2022-10-16T09:22:47;100552.75;;;20.57;62.18
11343;BME280;5726;42.160;24.746;2022-10-16T09:25:15;100560.94;;;20.86;63.37
11343;BME280;5726;42.160;24.746;2022-10-16T09:27:44;100554.63;;;20.73;59.38
11343;BME280;5726;42.160;24.746;2022-10-16T09:30:19;100553.97;;;20.76;59.77
11343;BME280;5726;42.160;24.746;2022-10-16T09:32:47;100553.75;;;20.53;59.06
11343;BME280;5726;42.160;24.746;2022-10-16T09:35:17;100558.00;;;20.33;57.39
11343;BME280;5726;42.160;24.746;2022-10-16T09:37:45;100552.50;;;20.42;56.82
11343;BME280;5726;42.160;24.746;2022-10-16T09:40:44;100541.75;;;20.45;56.93
11343;BME280;5726;42.160;24.746;2022-10-16T09:43:30;100540.88;;;20.62;57.86
11343;BME280;5726;42.160;24.746;2022-10-16T09:46:02;100546.91;;;20.75;59.68
11343;BME280;5726;42.160;24.746;2022-10-16T09:48:36;100538.88;;;20.99;57.07
11343;BME280;5726;42.160;24.746;2022-10-16T09:51:05;100537.78;;;20.71;57.94
11343;BME280;5726;42.160;24.746;2022-10-16T09:53:42;100532.22;;;20.88;56.85
11343;BME280;5726;42.160;24.746;2022-10-16T09:56:11;100538.81;;;20.87;57.34
11343;BME280;5726;42.160;24.746;2022-10-16T09:58:42;100536.06;;;20.59;57.67
11343;BME280;5726;42.160;24.746;2022-10-16T10:01:13;100526.50;;;20.81;57.31
11343;BME280;5726;42.160;24.746;2022-10-16T10:03:41;100520.06;;;20.86;57.91
11343;BME280;5726;42.160;24.746;2022-10-16T10:09:03;100521.28;;;20.68;57.33
11343;BME280;5726;42.160;24.746;2022-10-16T10:11:56;100510.94;;;20.53;55.43
11343;BME280;5726;42.160;24.746;2022-10-16T10:14:45;100517.50;;;20.52;54.90
11343;BME280;5726;42.160;24.746;2022-10-16T10:17:17;100507.28;;;20.98;53.99
11343;BME280;5726;42.160;24.746;2022-10-16T10:27:32;100510.78;;;20.78;56.45
11343;BME280;5726;42.160;24.746;2022-10-16T10:35:22;100494.34;;;20.38;56.08
11343;BME280;5726;42.160;24.746;2022-10-16T10:38:11;100500.56;;;20.47;55.49
11343;BME280;5726;42.160;24.746;2022-10-16T10:54:49;100484.50;;;21.35;53.59
11343;BME280;5726;42.160;24.746;2022-10-16T10:57:32;100480.88;;;21.11;52.53
11343;BME280;5726;42.160;24.746;2022-10-16T11:02:52;100474.16;;;21.28;54.27
11343;BME280;5726;42.160;24.746;2022-10-16T11:05:56;100470.03;;;21.55;52.96
11343;BME280;5726;42.160;24.746;2022-10-16T11:08:19;100469.59;;;21.32;53.96
11343;BME280;5726;42.160;24.746;2022-10-16T11:10:58;100475.97;;;21.57;52.96
11343;BME280;5726;42.160;24.746;2022-10-16T11:13:30;100467.19;;;21.31;53.69
11343;BME280;5726;42.160;24.746;2022-10-16T11:16:00;100466.25;;;20.95;52.05
11343;BME280;5726;42.160;24.746;2022-10-16T11:18:49;100466.13;;;20.91;51.50
11343;BME280;5726;42.160;24.746;2022-10-16T11:21:18;100468.56;;;20.84;52.32
11343;BME280;5726;42.160;24.746;2022-10-16T11:24:15;100460.19;;;20.89;52.02
11343;BME280;5726;42.160;24.746;2022-10-16T11:26:44;100461.34;;;20.88;51.88
11343;BME280;5726;42.160;24.746;2022-10-16T11:29:21;100459.28;;;20.57;52.28
11343;BME280;5726;42.160;24.746;2022-10-16T11:31:53;100457.97;;;20.34;52.29
11343;BME280;5726;42.160;24.746;2022-10-16T11:36:57;100448.53;;;20.31;52.65
11343;BME280;5726;42.160;24.746;2022-10-16T11:39:26;100441.84;;;20.49;52.41
11343;BME280;5726;42.160;24.746;2022-10-16T11:49:31;100444.09;;;21.16;49.49
11343;BME280;5726;42.160;24.746;2022-10-16T11:54:56;100449.31;;;20.69;49.33
11343;BME280;5726;42.160;24.746;2022-10-16T11:57:23;100444.81;;;20.85;49.70
11343;BME280;5726;42.160;24.746;2022-10-16T11:59:59;100448.75;;;20.96;50.25
11343;BME280;5726;42.160;24.746;2022-10-16T12:08:19;100450.22;;;20.93;49.88
11343;BME280;5726;42.160;24.746;2022-10-16T12:10:46;100451.81;;;20.94;50.92
11343;BME280;5726;42.160;24.746;2022-10-16T12:13:32;100455.66;;;21.13;51.01
11343;BME280;5726;42.160;24.746;2022-10-16T12:16:27;100451.81;;;21.47;50.29
11343;BME280;5726;42.160;24.746;2022-10-16T12:19:12;100446.75;;;21.37;49.08
11343;BME280;5726;42.160;24.746;2022-10-16T12:21:38;100447.91;;;21.36;48.77
11343;BME280;5726;42.160;24.746;2022-10-16T12:24:04;100454.44;;;21.23;49.30
11343;BME280;5726;42.160;24.746;2022-10-16T12:26:37;100457.09;;;21.31;48.21
11343;BME280;5726;42.160;24.746;2022-10-16T12:29:14;100460.00;;;20.94;48.88
11343;BME280;5726;42.160;24.746;2022-10-16T12:31:46;100448.09;;;20.78;49.49
11343;BME280;5726;42.160;24.746;2022-10-16T12:34:31;100448.44;;;20.77;49.22
11343;BME280;5726;42.160;24.746;2022-10-16T12:37:19;100447.75;;;20.80;49.44
11343;BME280;5726;42.160;24.746;2022-10-16T12:39:47;100451.41;;;21.04;49.74
11343;BME280;5726;42.160;24.746;2022-10-16T12:44:52;100446.88;;;21.08;48.46
11343;BME280;5726;42.160;24.746;2022-10-16T12:47:23;100449.28;;;21.10;49.00
11343;BME280;5726;42.160;24.746;2022-10-16T12:49:53;100456.00;;;21.12;49.62
11343;BME280;5726;42.160;24.746;2022-10-16T12:52:36;100460.78;;;20.95;49.69
11343;BME280;5726;42.160;24.746;2022-10-16T12:55:05;100458.06;;;21.15;49.51
11343;BME280;5726;42.160;24.746;2022-10-16T12:58:15;100460.06;;;21.06;49.44
11343;BME280;5726;42.160;24.746;2022-10-16T13:06:51;100458.94;;;21.39;48.70
11343;BME280;5726;42.160;24.746;2022-10-16T13:11:57;100464.03;;;21.61;48.30
11343;BME280;5726;42.160;24.746;2022-10-16T13:20:17;100464.47;;;20.99;49.62
11343;BME280;5726;42.160;24.746;2022-10-16T13:23:06;100458.66;;;21.00;49.43
11343;BME280;5726;42.160;24.746;2022-10-16T13:28:35;100460.69;;;21.23;50.83
11343;BME280;5726;42.160;24.746;2022-10-16T13:31:03;100455.00;;;21.16;49.48
11343;BME280;5726;42.160;24.746;2022-10-16T13:35:56;100464.47;;;21.31;48.93
11343;BME280;5726;42.160;24.746;2022-10-16T13:38:25;100471.56;;;20.91;49.31
11343;BME280;5726;42.160;24.746;2022-10-16T13:40:57;100462.19;;;20.80;49.87
11343;BME280;5726;42.160;24.746;2022-10-16T13:43:28;100467.03;;;20.95;50.07
11343;BME280;5726;42.160;24.746;2022-10-16T13:45:56;100467.59;;;21.09;49.01
11343;BME280;5726;42.160;24.746;2022-10-16T13:48:22;100459.13;;;21.22;48.91
11343;BME280;5726;42.160;24.746;2022-10-16T13:51:02;100462.41;;;21.28;48.26
11343;BME280;5726;42.160;24.746;2022-10-16T13:53:30;100469.38;;;21.05;48.31
11343;BME280;5726;42.160;24.746;2022-10-16T13:55:56;100466.84;;;21.00;49.43
11343;BME280;5726;42.160;24.746;2022-10-16T13:58:22;100464.19;;;20.92;48.56
11343;BME280;5726;42.160;24.746;2022-10-16T14:00:56;100465.13;;;20.75;49.09
11343;BME280;5726;42.160;24.746;2022-10-16T14:03:22;100458.34;;;20.81;49.32
11343;BME280;5726;42.160;24.746;2022-10-16T14:06:12;100468.38;;;20.89;49.52
11343;BME280;5726;42.160;24.746;2022-10-16T14:08:42;100469.38;;;20.85;49.14
11343;BME280;5726;42.160;24.746;2022-10-16T14:11:09;100464.97;;;20.92;49.50
11343;BME280;5726;42.160;24.746;2022-10-16T14:13:43;100473.38;;;20.87;49.21
11343;BME280;5726;42.160;24.746;2022-10-16T14:16:11;100463.50;;;20.74;49.64
11343;BME280;5726;42.160;24.746;2022-10-16T14:18:41;100467.91;;;20.87;49.27
11343;BME280;5726;42.160;24.746;2022-10-16T14:21:13;100470.13;;;20.73;49.67
11343;BME280;5726;42.160;24.746;2022-10-16T14:23:40;100464.19;;;20.71;49.39
11343;BME280;5726;42.160;24.746;2022-10-16T14:28:38;100466.50;;;20.81;49.44
11343;BME280;5726;42.160;24.746;2022-10-16T14:31:34;100461.81;;;20.62;49.07
11343;BME280;5726;42.160;24.746;2022-10-16T14:34:02;100472.72;;;20.33;49.94
11343;BME280;5726;42.160;24.746;2022-10-16T14:36:28;100465.47;;;20.45;49.83
11343;BME280;5726;42.160;24.746;2022-10-16T14:39:04;100467.03;;;20.46;49.83
11343;BME280;5726;42.160;24.746;2022-10-16T14:41:31;100473.97;;;20.44;49.66
11343;BME280;5726;42.160;24.746;2022-10-16T14:44:02;100475.28;;;20.38;49.99
11343;BME280;5726;42.160;24.746;2022-10-16T14:46:35;100475.94;;;20.35;49.90
11343;BME280;5726;42.160;24.746;2022-10-16T14:51:40;100474.63;;;20.41;49.54
11343;BME280;5726;42.160;24.746;2022-10-16T14:54:11;100464.50;;;20.41;49.45
11343;BME280;5726;42.160;24.746;2022-10-16T14:56:47;100476.78;;;20.56;49.40
11343;BME280;5726;42.160;24.746;2022-10-16T15:01:50;100475.28;;;20.38;49.81